createdAt,value
2018-04-07T00:00:18.989Z,4.16
2018-04-07T00:02:47.604Z,4.12
2018-04-07T00:05:16.290Z,4.07
2018-04-07T00:07:45.392Z,4.04
2018-04-07T00:10:14.478Z,4.02
2018-04-07T00:12:42.875Z,3.98
2018-04-07T00:15:11.597Z,3.99
2018-04-07T00:17:40.007Z,3.97
2018-04-07T00:20:08.451Z,3.95
2018-04-07T00:22:37.039Z,3.94
2018-04-07T00:25:05.383Z,3.92
2018-04-07T00:27:34.638Z,3.91
2018-04-07T00:30:03.162Z,3.90
2018-04-07T00:32:31.797Z,3.89
2018-04-07T00:35:00.201Z,3.89
2018-04-07T00:37:28.668Z,3.88
2018-04-07T00:39:57.222Z,3.89
2018-04-07T00:42:25.788Z,3.87
2018-04-07T00:44:54.298Z,3.86
2018-04-07T00:47:22.756Z,3.85
2018-04-07T00:49:51.280Z,3.80
2018-04-07T00:52:19.859Z,3.79
2018-04-07T00:54:48.504Z,3.80
2018-04-07T00:57:16.848Z,3.84
2018-04-07T00:59:45.208Z,3.85
2018-04-07T01:02:13.556Z,3.86
2018-04-07T01:04:42.241Z,3.83
2018-04-07T01:07:10.588Z,3.81
2018-04-07T01:09:38.932Z,3.83
2018-04-07T01:12:07.332Z,3.82
2018-04-07T01:14:35.670Z,3.80
2018-04-07T01:17:04.169Z,3.77
2018-04-07T01:19:32.821Z,3.73
2018-04-07T01:22:01.481Z,3.70
2018-04-07T01:24:29.863Z,3.66
2018-04-07T01:26:58.209Z,3.64
2018-04-07T01:29:26.580Z,3.62
2018-04-07T01:31:54.945Z,3.57
2018-04-07T01:34:23.635Z,3.56
2018-04-07T01:36:52.033Z,3.58
2018-04-07T01:39:20.392Z,3.60
2018-04-07T01:41:48.733Z,3.58
2018-04-07T01:44:17.069Z,3.58
2018-04-07T01:46:45.425Z,3.57
2018-04-07T01:49:13.769Z,3.57
2018-04-07T01:51:42.463Z,3.58
2018-04-07T01:54:11.209Z,3.60
2018-04-07T01:56:39.566Z,3.55
2018-04-07T01:59:07.908Z,3.51
2018-04-07T02:01:36.248Z,3.51
2018-04-07T02:04:04.600Z,3.50
2018-04-07T02:06:32.946Z,3.47
2018-04-07T02:09:01.282Z,3.42
2018-04-07T02:11:29.959Z,3.38
2018-04-07T02:13:58.309Z,3.34
2018-04-07T02:16:26.647Z,3.27
2018-04-07T02:18:55.302Z,3.21
2018-04-07T02:21:23.712Z,3.16
2018-04-07T02:23:52.325Z,3.15
2018-04-07T02:26:20.683Z,3.14
2018-04-07T02:28:49.037Z,3.11
2018-04-07T02:31:17.391Z,3.05
2018-04-07T02:33:45.913Z,3.02
2018-04-07T02:36:14.262Z,3.01
2018-04-07T02:38:42.613Z,3.00
2018-04-07T02:41:10.989Z,2.99
2018-04-07T02:43:39.368Z,2.99
2018-04-07T02:46:07.721Z,3.00
2018-04-07T02:48:36.060Z,2.95
2018-04-07T02:51:04.426Z,2.92
2018-04-07T02:53:33.254Z,2.92
2018-04-07T02:56:01.607Z,2.93
2018-04-07T02:58:29.980Z,2.87
2018-04-07T03:00:58.317Z,2.81
2018-04-07T03:03:26.652Z,2.77
2018-04-07T03:05:54.992Z,2.72
2018-04-07T03:08:23.690Z,2.68
2018-04-07T03:10:52.034Z,2.64
2018-04-07T03:13:20.440Z,2.58
2018-04-07T03:15:49.236Z,2.51
2018-04-07T03:18:17.586Z,2.48
2018-04-07T03:20:45.972Z,2.49
2018-04-07T03:23:14.326Z,2.47
2018-04-07T03:25:42.664Z,2.47
2018-04-07T03:28:11.082Z,2.45
2018-04-07T03:30:39.422Z,2.46
2018-04-07T03:33:07.765Z,2.46
2018-04-07T03:35:36.132Z,2.43
2018-04-07T03:38:04.485Z,2.43
2018-04-07T03:40:32.825Z,2.46
2018-04-07T03:43:01.202Z,2.48
2018-04-07T03:45:29.549Z,2.50
2018-04-07T03:47:58.098Z,2.50
2018-04-07T03:50:26.536Z,2.49
2018-04-07T03:52:54.885Z,2.48
2018-04-07T03:55:23.380Z,2.43
2018-04-07T03:57:51.845Z,2.39
2018-04-07T04:00:21.221Z,2.37
2018-04-07T04:02:50.039Z,2.33
2018-04-07T04:05:18.538Z,2.31
2018-04-07T04:07:47.039Z,2.26
2018-04-07T04:10:15.547Z,2.27
2018-04-07T04:12:44.928Z,2.31
2018-04-07T04:15:13.392Z,2.30
2018-04-07T04:17:42.905Z,2.28
2018-04-07T04:20:11.310Z,2.28
2018-04-07T04:22:40.049Z,2.29
2018-04-07T04:25:08.445Z,2.33
2018-04-07T04:27:36.932Z,2.30
2018-04-07T04:30:05.558Z,2.28
2018-04-07T04:32:33.978Z,2.27
2018-04-07T04:35:02.374Z,2.28
2018-04-07T04:37:30.760Z,2.29
2018-04-07T04:39:59.138Z,2.32
2018-04-07T04:42:27.493Z,2.33
2018-04-07T04:44:55.985Z,2.32
2018-04-07T04:47:24.362Z,2.32
2018-04-07T04:49:53.672Z,2.36
2018-04-07T04:52:22.466Z,2.39
2018-04-07T04:54:51.185Z,2.43
2018-04-07T04:57:20.279Z,2.47
2018-04-07T04:59:48.730Z,2.51
2018-04-07T05:02:17.304Z,2.57
2018-04-07T05:04:45.779Z,2.61
2018-04-07T05:07:14.588Z,2.69
2018-04-07T05:09:42.976Z,2.83
2018-04-07T05:12:12.081Z,3.02
2018-04-07T05:14:40.447Z,3.28
2018-04-07T05:17:08.938Z,3.65
2018-04-07T05:19:37.294Z,4.04
2018-04-07T05:22:06.032Z,4.31
2018-04-07T05:24:35.065Z,4.38
2018-04-07T05:27:03.674Z,4.37
2018-04-07T05:29:32.354Z,4.32
2018-04-07T05:32:00.746Z,4.23
2018-04-07T05:34:29.843Z,4.16
2018-04-07T05:36:58.526Z,4.15
2018-04-07T05:39:26.872Z,4.16
2018-04-07T05:41:55.678Z,4.15
2018-04-07T05:44:24.320Z,4.14
2018-04-07T05:46:52.929Z,4.10
2018-04-07T05:49:21.573Z,4.15
2018-04-07T05:51:50.181Z,4.24
2018-04-07T05:54:19.144Z,4.35
2018-04-07T05:56:48.182Z,4.47
2018-04-07T05:59:18.241Z,4.53
2018-04-07T06:01:46.705Z,4.62
2018-04-07T06:04:15.261Z,4.70
2018-04-07T06:06:43.981Z,4.82
2018-04-07T06:09:12.485Z,4.93
2018-04-07T06:11:41.170Z,5.02
2018-04-07T06:14:09.816Z,5.11
2018-04-07T06:16:38.307Z,5.18
2018-04-07T06:19:06.752Z,5.26
2018-04-07T06:21:35.742Z,5.37
2018-04-07T06:24:04.412Z,5.49
2018-04-07T06:26:33.181Z,5.56
2018-04-07T06:29:01.600Z,5.62
2018-04-07T06:31:30.941Z,5.73
2018-04-07T06:33:59.792Z,5.89
2018-04-07T06:36:29.014Z,6.06
2018-04-07T06:38:58.639Z,6.23
2018-04-07T06:41:27.570Z,6.39
2018-04-07T06:43:57.105Z,6.51
2018-04-07T06:46:25.800Z,6.67
2018-04-07T06:48:54.166Z,6.94
2018-04-07T06:51:22.526Z,7.01
2018-04-07T06:53:51.000Z,6.99
2018-04-07T06:56:21.360Z,7.01
2018-04-07T06:58:51.289Z,7.11
2018-04-07T07:01:20.155Z,7.21
2018-04-07T07:03:48.603Z,7.29
2018-04-07T07:06:17.679Z,7.38
2018-04-07T07:08:46.869Z,7.46
2018-04-07T07:11:15.240Z,7.52
2018-04-07T07:13:43.933Z,7.62
2018-04-07T07:16:12.381Z,7.70
2018-04-07T07:18:41.138Z,7.81
2018-04-07T07:21:09.697Z,8.00
2018-04-07T07:23:38.107Z,8.19
2018-04-07T07:26:06.452Z,8.33
2018-04-07T07:28:34.798Z,8.47
2018-04-07T07:31:03.150Z,8.60
2018-04-07T07:33:32.596Z,8.75
2018-04-07T07:36:01.181Z,8.84
2018-04-07T07:38:29.623Z,8.93
2018-04-07T07:40:58.143Z,9.00
2018-04-07T07:43:26.517Z,9.06
2018-04-07T07:45:54.956Z,9.14
2018-04-07T07:48:23.567Z,9.25
2018-04-07T07:50:51.962Z,9.33
2018-04-07T07:53:20.431Z,9.37
2018-04-07T07:55:48.811Z,9.40
2018-04-07T07:58:17.462Z,9.45
2018-04-07T08:00:45.805Z,9.51
2018-04-07T08:03:14.308Z,9.55
2018-04-07T08:05:43.063Z,9.62
2018-04-07T08:08:11.438Z,9.74
2018-04-07T08:10:40.530Z,9.82
2018-04-07T08:13:08.905Z,9.90
2018-04-07T08:15:37.291Z,9.95
2018-04-07T08:18:05.702Z,9.99
2018-04-07T08:20:34.163Z,10.06
2018-04-07T08:23:02.473Z,10.12
2018-04-07T08:25:31.103Z,10.20
2018-04-07T08:27:59.809Z,10.29
2018-04-07T08:30:28.220Z,10.38
2018-04-07T08:32:56.586Z,10.43
2018-04-07T08:35:25.834Z,10.46
2018-04-07T08:37:54.619Z,10.50
2018-04-07T08:40:23.080Z,10.55
2018-04-07T08:42:52.427Z,10.61
2018-04-07T08:45:20.971Z,10.69
2018-04-07T08:47:49.852Z,10.78
2018-04-07T08:50:20.407Z,10.86
2018-04-07T08:52:48.855Z,10.94
2018-04-07T08:55:17.768Z,11.01
2018-04-07T08:57:46.132Z,11.06
2018-04-07T09:00:15.025Z,11.13
2018-04-07T09:02:43.382Z,11.18
2018-04-07T09:05:12.303Z,11.27
2018-04-07T09:07:40.711Z,11.31
2018-04-07T09:10:09.093Z,11.35
2018-04-07T09:12:37.492Z,11.37
2018-04-07T09:15:05.989Z,11.39
2018-04-07T09:17:34.337Z,11.43
2018-04-07T09:20:02.701Z,11.50
2018-04-07T09:22:31.103Z,11.57
2018-04-07T09:24:59.841Z,11.62
2018-04-07T09:27:28.261Z,11.72
2018-04-07T09:29:57.088Z,11.78
2018-04-07T09:32:25.559Z,11.81
2018-04-07T09:34:54.177Z,11.85
2018-04-07T09:37:22.562Z,11.90
2018-04-07T09:39:50.938Z,11.97
2018-04-07T09:42:19.433Z,12.07
2018-04-07T09:44:48.526Z,12.15
2018-04-07T09:47:16.906Z,12.20
2018-04-07T09:49:45.562Z,12.23
2018-04-07T09:52:13.911Z,12.28
2018-04-07T09:54:42.395Z,12.35
2018-04-07T09:57:10.742Z,12.36
2018-04-07T09:59:39.133Z,12.35
2018-04-07T10:02:07.586Z,12.47
2018-04-07T10:04:35.942Z,12.56
2018-04-07T10:07:04.376Z,12.71
2018-04-07T10:09:32.810Z,12.76
2018-04-07T10:12:01.396Z,12.74
2018-04-07T10:14:30.112Z,12.75
2018-04-07T10:16:58.826Z,12.77
2018-04-07T10:19:27.184Z,12.82
2018-04-07T10:21:55.534Z,12.88
2018-04-07T10:24:23.896Z,13.01
2018-04-07T10:26:52.577Z,13.10
2018-04-07T10:29:21.214Z,13.13
2018-04-07T10:31:50.528Z,13.13
2018-04-07T10:34:18.998Z,13.15
2018-04-07T10:36:48.122Z,13.23
2018-04-07T10:39:16.476Z,13.24
2018-04-07T10:41:45.047Z,13.34
2018-04-07T10:44:14.995Z,13.42
2018-04-07T10:46:43.589Z,13.44
2018-04-07T10:49:13.426Z,13.50
2018-04-07T10:54:20.691Z,13.62
2018-04-07T10:56:49.125Z,13.75
2018-04-07T10:59:18.843Z,13.84
2018-04-07T11:01:48.279Z,13.87
2018-04-07T11:04:17.765Z,13.95
2018-04-07T11:06:46.234Z,14.11
2018-04-07T11:09:14.841Z,14.27
2018-04-07T11:11:43.569Z,14.54
2018-04-07T11:14:11.951Z,14.77
2018-04-07T11:16:40.524Z,15.02
2018-04-07T11:19:08.892Z,15.26
2018-04-07T11:21:37.646Z,15.48
2018-04-07T11:24:06.055Z,15.66
2018-04-07T11:26:34.971Z,15.67
2018-04-07T11:29:03.493Z,15.86
2018-04-07T11:31:32.270Z,15.98
2018-04-07T11:34:01.671Z,16.07
2018-04-07T11:36:30.102Z,16.20
2018-04-07T11:38:58.728Z,16.33
2018-04-07T11:41:27.992Z,16.53
2018-04-07T11:43:56.470Z,16.58
2018-04-07T11:46:24.926Z,16.63
2018-04-07T11:48:54.133Z,16.76
2018-04-07T11:51:22.971Z,16.89
2018-04-07T11:53:51.674Z,16.88
2018-04-07T11:56:20.640Z,16.83
2018-04-07T11:58:50.423Z,16.95
2018-04-07T12:01:19.312Z,17.14
2018-04-07T12:03:48.038Z,17.40
2018-04-07T12:06:17.240Z,17.62
2018-04-07T12:08:45.670Z,17.87
2018-04-07T12:11:14.785Z,18.19
2018-04-07T12:13:43.440Z,18.39
2018-04-07T12:16:12.186Z,18.63
2018-04-07T12:18:41.931Z,18.90
2018-04-07T12:21:10.337Z,19.13
2018-04-07T12:23:39.147Z,19.13
2018-04-07T12:26:07.833Z,18.86
2018-04-07T12:28:36.615Z,19.02
2018-04-07T12:31:05.651Z,19.16
2018-04-07T12:33:34.429Z,19.24
2018-04-07T12:36:03.162Z,19.21
2018-04-07T12:38:32.664Z,19.05
2018-04-07T12:41:01.061Z,19.23
2018-04-07T12:43:30.125Z,19.42
2018-04-07T12:45:59.010Z,19.62
2018-04-07T12:48:28.443Z,19.72
2018-04-07T12:50:57.261Z,19.73
2018-04-07T12:53:25.956Z,19.98
2018-04-07T12:55:54.746Z,20.16
2018-04-07T12:58:23.536Z,20.37
2018-04-07T13:00:51.990Z,20.62
2018-04-07T13:03:20.359Z,20.72
2018-04-07T13:05:48.982Z,20.71
2018-04-07T13:08:17.962Z,20.95
2018-04-07T13:10:46.412Z,20.88
2018-04-07T13:13:15.971Z,21.16
2018-04-07T13:15:44.375Z,21.13
2018-04-07T13:18:14.086Z,21.17
2018-04-07T13:23:17.685Z,20.96
2018-04-07T13:25:50.024Z,21.03
2018-04-07T13:28:19.095Z,20.97
2018-04-07T13:30:47.701Z,20.74
2018-04-07T13:33:16.748Z,20.91
2018-04-07T13:35:45.937Z,21.09
2018-04-07T13:38:14.417Z,21.11
2018-04-07T13:40:42.997Z,21.24
2018-04-07T13:43:11.512Z,21.31
2018-04-07T13:45:41.344Z,21.76
2018-04-07T13:48:10.028Z,21.95
2018-04-07T13:50:40.090Z,22.29
2018-04-07T13:53:08.453Z,22.28
2018-04-07T13:55:37.293Z,22.22
2018-04-07T13:58:06.165Z,22.30
2018-04-07T14:03:07.447Z,22.18
2018-04-07T14:05:36.233Z,22.24
2018-04-07T14:08:06.556Z,22.30
2018-04-07T14:10:36.446Z,22.28
2018-04-07T14:13:05.071Z,22.37
2018-04-07T14:15:37.305Z,22.59
2018-04-07T14:18:06.527Z,22.92
2018-04-07T14:20:35.913Z,22.89
2018-04-07T14:23:04.427Z,23.09
2018-04-07T14:25:33.535Z,23.16
2018-04-07T14:28:02.657Z,22.98
2018-04-07T14:30:34.067Z,23.27
2018-04-07T14:33:08.733Z,23.71
2018-04-07T14:35:39.564Z,24.00
2018-04-07T14:38:08.580Z,24.11
2018-04-07T14:40:37.737Z,23.86
2018-04-07T14:43:06.975Z,23.63
2018-04-07T14:45:35.719Z,23.81
2018-04-07T14:48:05.070Z,24.13
2018-04-07T14:50:33.582Z,24.07
2018-04-07T14:53:02.013Z,23.86
2018-04-07T14:55:30.929Z,23.87
2018-04-07T14:57:59.836Z,23.86
2018-04-07T15:00:28.603Z,24.05
2018-04-07T15:02:57.773Z,24.23
2018-04-07T15:05:26.200Z,24.45
2018-04-07T15:07:54.597Z,24.41
2018-04-07T15:10:23.258Z,24.48
2018-04-07T15:12:51.845Z,24.43
2018-04-07T15:15:20.918Z,24.62
2018-04-07T15:17:49.758Z,24.69
2018-04-07T15:20:18.172Z,24.80
2018-04-07T15:22:46.662Z,25.21
2018-04-07T15:25:15.298Z,25.53
2018-04-07T15:27:44.475Z,25.54
2018-04-07T15:30:13.146Z,25.44
2018-04-07T15:32:41.683Z,25.25
2018-04-07T15:35:10.467Z,25.67
2018-04-07T15:37:41.291Z,25.28
2018-04-07T15:40:10.020Z,24.50
2018-04-07T15:42:38.501Z,24.22
2018-04-07T15:45:07.062Z,24.30
2018-04-07T15:47:36.648Z,24.24
2018-04-07T15:50:06.070Z,23.95
2018-04-07T15:52:34.477Z,23.98
2018-04-07T15:55:03.000Z,23.88
2018-04-07T15:57:32.367Z,23.51
2018-04-07T16:00:01.771Z,23.11
2018-04-07T16:02:30.277Z,22.46
2018-04-07T16:04:58.697Z,21.78
2018-04-07T16:07:27.351Z,20.94
2018-04-07T16:09:57.215Z,20.35
2018-04-07T16:12:27.161Z,20.00
2018-04-07T16:14:56.632Z,19.62
2018-04-07T16:17:25.091Z,19.22
2018-04-07T16:19:53.894Z,18.89
2018-04-07T16:22:27.283Z,18.61
2018-04-07T16:24:59.646Z,18.33
2018-04-07T16:27:33.558Z,18.05
2018-04-07T16:30:04.799Z,17.83
2018-04-07T16:32:33.337Z,17.72
2018-04-07T16:35:06.614Z,17.57
2018-04-07T16:37:35.353Z,17.43
2018-04-07T16:40:04.639Z,17.37
2018-04-07T16:42:33.033Z,17.30
2018-04-07T16:45:01.401Z,17.12
2018-04-07T16:47:30.124Z,16.95
2018-04-07T16:49:58.866Z,16.89
2018-04-07T16:52:30.572Z,16.86
2018-04-07T16:55:00.339Z,16.74
2018-04-07T16:57:32.657Z,16.58
2018-04-07T17:00:02.925Z,16.47
2018-04-07T17:02:32.126Z,16.43
2018-04-07T17:05:00.573Z,16.41
2018-04-07T17:07:30.023Z,16.33
2018-04-07T17:09:59.378Z,16.24
2018-04-07T17:12:33.903Z,16.12
2018-04-07T17:15:04.987Z,16.02
2018-04-07T17:17:37.374Z,15.95
2018-04-07T17:20:06.431Z,15.86
2018-04-07T17:22:41.182Z,15.83
2018-04-07T17:25:10.773Z,15.82
2018-04-07T17:27:40.060Z,15.78
2018-04-07T17:30:08.939Z,15.68
2018-04-07T17:32:37.604Z,15.56
2018-04-07T17:35:06.061Z,15.46
2018-04-07T17:37:34.470Z,15.38
2018-04-07T17:40:02.852Z,15.36
2018-04-07T17:42:31.330Z,15.28
2018-04-07T17:45:00.113Z,15.19
2018-04-07T17:47:28.503Z,15.10
2018-04-07T17:55:07.085Z,15.20
2018-04-07T17:57:35.522Z,15.10
2018-04-07T18:00:06.620Z,14.96
2018-04-07T18:02:35.285Z,14.75
2018-04-07T18:05:04.151Z,14.66
2018-04-07T18:07:32.568Z,14.58
2018-04-07T18:10:00.945Z,14.53
2018-04-07T18:12:29.463Z,14.45
2018-04-07T18:14:59.219Z,14.41
2018-04-07T18:17:28.614Z,14.35
2018-04-07T18:19:58.359Z,14.25
2018-04-07T18:22:26.850Z,14.21
2018-04-07T18:24:55.464Z,14.10
2018-04-07T18:27:23.879Z,14.01
2018-04-07T18:29:52.291Z,13.99
2018-04-07T18:32:21.071Z,14.00
2018-04-07T18:34:49.513Z,13.92
2018-04-07T18:37:17.936Z,13.87
2018-04-07T18:39:47.093Z,13.84
2018-04-07T18:42:16.519Z,13.87
2018-04-07T18:44:45.369Z,13.83
2018-04-07T18:47:14.669Z,13.75
2018-04-07T18:49:44.318Z,13.73
2018-04-07T18:52:13.073Z,13.68
2018-04-07T18:54:41.468Z,13.65
2018-04-07T18:57:10.109Z,13.59
2018-04-07T18:59:38.482Z,13.57
2018-04-07T19:02:06.856Z,13.56
2018-04-07T19:04:35.621Z,13.51
2018-04-07T19:07:04.355Z,13.46
2018-04-07T19:09:32.808Z,13.40
2018-04-07T19:12:01.178Z,13.44
2018-04-07T19:14:29.586Z,13.41
2018-04-07T19:16:57.984Z,13.41
2018-04-07T19:19:26.766Z,13.43
2018-04-07T19:21:55.360Z,13.46
2018-04-07T19:24:23.832Z,13.44
2018-04-07T19:26:52.266Z,13.39
2018-04-07T19:29:20.635Z,13.36
2018-04-07T19:31:50.071Z,13.33
2018-04-07T19:34:18.454Z,13.38
2018-04-07T19:36:47.330Z,13.42
2018-04-07T19:39:17.392Z,13.39
2018-04-07T19:41:45.876Z,13.35
2018-04-07T19:44:14.399Z,13.31
2018-04-07T19:46:42.769Z,13.30
2018-04-07T19:49:11.150Z,13.29
2018-04-07T19:51:39.553Z,13.23
2018-04-07T19:54:08.030Z,13.21
2018-04-07T19:56:36.402Z,13.21
2018-04-07T19:59:04.979Z,13.17
2018-04-07T20:01:33.484Z,13.17
2018-04-07T20:04:01.872Z,13.19
2018-04-07T20:06:30.242Z,13.22
2018-04-07T20:08:59.822Z,13.17
2018-04-07T20:11:28.312Z,13.19
2018-04-07T20:13:56.679Z,13.20
2018-04-07T20:16:25.048Z,13.21
2018-04-07T20:18:53.413Z,13.20
2018-04-07T20:21:21.919Z,13.22
2018-04-07T20:23:50.546Z,13.16
2018-04-07T20:26:18.922Z,13.07
2018-04-07T20:28:47.306Z,13.02
2018-04-07T20:31:15.673Z,13.02
2018-04-07T20:33:44.047Z,13.01
2018-04-07T20:36:12.419Z,13.03
2018-04-07T20:38:41.746Z,13.04
2018-04-07T20:41:10.494Z,13.08
2018-04-07T20:43:38.952Z,13.09
2018-04-07T20:46:07.348Z,13.13
2018-04-07T20:48:35.728Z,13.16
2018-04-07T20:51:04.178Z,13.20
2018-04-07T20:53:32.561Z,13.23
2018-04-07T20:56:01.273Z,13.25
2018-04-07T20:58:30.407Z,13.31
2018-04-07T21:00:58.823Z,13.37
2018-04-07T21:03:27.242Z,13.41
2018-04-07T21:05:55.648Z,13.43
2018-04-07T21:08:24.070Z,13.40
2018-04-07T21:10:52.542Z,13.41
2018-04-07T21:13:21.090Z,13.46
2018-04-07T21:15:50.063Z,13.47
2018-04-07T21:18:20.160Z,13.42
2018-04-07T21:20:48.592Z,13.41
2018-04-07T21:23:20.106Z,13.34
2018-04-07T21:25:48.605Z,13.29
2018-04-07T21:28:16.973Z,13.28
2018-04-07T21:30:45.362Z,13.29
2018-04-07T21:33:15.619Z,13.33
2018-04-07T21:40:51.473Z,13.30
2018-04-07T21:43:19.952Z,13.26
2018-04-07T21:45:49.155Z,13.27
2018-04-07T21:48:19.029Z,13.26
2018-04-07T21:50:48.670Z,13.24
2018-04-07T21:53:17.201Z,13.26
2018-04-07T21:55:46.559Z,13.25
2018-04-07T21:58:18.228Z,13.21
2018-04-07T22:00:46.940Z,13.18
2018-04-07T22:03:15.573Z,13.20
2018-04-07T22:05:45.290Z,13.19
2018-04-07T22:08:13.984Z,13.13
2018-04-07T22:10:42.368Z,13.10
2018-04-07T22:13:10.894Z,13.09
2018-04-07T22:15:39.408Z,13.08
2018-04-07T22:18:08.249Z,13.03
2018-04-07T22:20:37.609Z,13.02
2018-04-07T22:23:06.076Z,13.02
2018-04-07T22:25:39.383Z,13.00
2018-04-07T22:28:08.753Z,13.00
2018-04-07T22:30:37.129Z,12.99
2018-04-07T22:33:05.860Z,12.95
2018-04-07T22:35:34.542Z,12.91
2018-04-07T22:38:03.327Z,12.88
2018-04-07T22:40:31.713Z,12.88
2018-04-07T22:43:01.078Z,12.90
2018-04-07T22:45:30.221Z,12.94
2018-04-07T22:47:58.614Z,12.96
2018-04-07T22:50:26.986Z,12.97
2018-04-07T22:52:55.349Z,12.98
2018-04-07T22:55:23.804Z,12.98
2018-04-07T22:57:53.514Z,13.03
2018-04-07T23:00:21.872Z,13.07
2018-04-07T23:02:50.250Z,13.12
2018-04-07T23:05:19.061Z,13.16
2018-04-07T23:07:47.517Z,13.18
2018-04-07T23:10:15.880Z,13.22
2018-04-07T23:12:44.540Z,13.25
2018-04-07T23:15:12.902Z,13.24
2018-04-07T23:17:41.608Z,13.26
2018-04-07T23:20:09.975Z,13.29
2018-04-07T23:22:38.626Z,13.33
2018-04-07T23:25:07.029Z,13.35
2018-04-07T23:27:35.706Z,13.39
2018-04-07T23:30:04.075Z,13.43
2018-04-07T23:32:32.485Z,13.43
2018-04-07T23:35:00.879Z,13.44
2018-04-07T23:37:30.116Z,13.43
2018-04-07T23:39:59.155Z,13.42
2018-04-07T23:42:27.632Z,13.41
2018-04-07T23:44:56.014Z,13.39
2018-04-07T23:47:24.748Z,13.39
2018-04-07T23:49:53.989Z,13.38
2018-04-07T23:52:23.201Z,13.37
2018-04-07T23:54:52.061Z,13.36
2018-04-07T23:57:21.287Z,13.35
2018-04-07T23:59:49.985Z,13.35
